createdAt,value
2022-12-01T00:01:30.957Z,83.75
2022-12-01T00:03:59.177Z,84.33
2022-12-01T00:06:27.197Z,84.87
2022-12-01T00:09:17.958Z,85.81
2022-12-01T00:11:48.674Z,85.48
2022-12-01T00:14:17.441Z,85.32
2022-12-01T00:16:47.130Z,85.15
2022-12-01T00:19:15.295Z,85.10
2022-12-01T00:21:43.313Z,85.10
2022-12-01T00:24:11.962Z,84.94
2022-12-01T00:26:40.097Z,84.35
2022-12-01T00:29:09.318Z,84.63
2022-12-01T00:31:37.594Z,84.99
2022-12-01T00:34:11.391Z,84.36
2022-12-01T00:36:40.815Z,83.27
2022-12-01T00:39:09.620Z,84.05
2022-12-01T00:41:37.947Z,84.14
2022-12-01T00:44:07.147Z,84.53
2022-12-01T00:46:35.427Z,85.23
2022-12-01T00:49:03.868Z,85.95
2022-12-01T00:51:33.379Z,84.85
2022-12-01T00:54:01.433Z,85.44
2022-12-01T00:56:29.709Z,85.54
2022-12-01T00:58:57.814Z,85.88
2022-12-01T01:01:26.008Z,86.06
2022-12-01T01:03:54.268Z,86.50
2022-12-01T01:06:22.390Z,87.06
2022-12-01T01:08:51.796Z,87.35
2022-12-01T01:11:19.815Z,87.18
2022-12-01T01:13:48.250Z,88.02
2022-12-01T01:16:18.999Z,87.28
2022-12-01T01:18:47.803Z,86.55
2022-12-01T01:21:18.294Z,86.86
2022-12-01T01:23:46.443Z,87.88
2022-12-01T01:26:18.898Z,88.33
2022-12-01T01:28:46.965Z,87.95
2022-12-01T01:31:16.775Z,87.85
2022-12-01T01:33:45.293Z,87.96
2022-12-01T01:36:14.454Z,88.62
2022-12-01T01:38:42.752Z,88.80
2022-12-01T01:41:11.536Z,86.76
2022-12-01T01:43:44.409Z,88.37
2022-12-01T01:46:14.002Z,89.44
2022-12-01T01:48:43.649Z,87.81
2022-12-01T01:51:12.668Z,88.64
2022-12-01T01:53:40.712Z,88.68
2022-12-01T01:56:11.009Z,87.37
2022-12-01T01:58:41.499Z,88.78
2022-12-01T02:01:09.747Z,88.82
2022-12-01T02:03:39.493Z,87.92
2022-12-01T02:06:09.687Z,87.81
2022-12-01T02:08:38.290Z,87.67
2022-12-01T02:11:48.483Z,87.32
2022-12-01T02:14:42.806Z,88.63
2022-12-01T02:17:21.532Z,88.55
2022-12-01T02:20:07.700Z,89.51
2022-12-01T02:22:42.739Z,88.43
2022-12-01T02:25:20.754Z,87.81
2022-12-01T02:28:22.357Z,87.83
2022-12-01T02:30:55.195Z,87.66
2022-12-01T02:33:27.754Z,88.40
2022-12-01T02:36:01.859Z,88.40
2022-12-01T02:38:31.859Z,87.55
2022-12-01T02:41:05.951Z,88.22
2022-12-01T02:43:39.245Z,87.87
2022-12-01T02:46:12.327Z,87.48
2022-12-01T02:48:43.088Z,87.06
2022-12-01T02:51:14.418Z,87.65
2022-12-01T02:53:42.558Z,88.10
2022-12-01T02:56:12.646Z,86.41
2022-12-01T02:58:40.838Z,87.44
2022-12-01T03:01:19.549Z,86.67
2022-12-01T03:04:12.312Z,86.29
2022-12-01T03:06:49.516Z,86.02
2022-12-01T03:09:28.260Z,85.88
2022-12-01T03:12:03.032Z,86.26
2022-12-01T03:14:36.319Z,85.61
2022-12-01T03:17:09.429Z,85.42
2022-12-01T03:19:39.021Z,85.36
2022-12-01T03:22:10.427Z,84.99
2022-12-01T03:24:40.869Z,86.15
2022-12-01T03:27:10.959Z,86.39
2022-12-01T03:29:41.659Z,85.73
2022-12-01T03:32:16.895Z,86.27
2022-12-01T03:34:49.660Z,84.94
2022-12-01T03:37:21.971Z,85.58
2022-12-01T03:39:53.705Z,85.44
2022-12-01T03:42:28.561Z,85.33
2022-12-01T03:44:59.074Z,85.99
2022-12-01T03:47:32.090Z,85.85
2022-12-01T03:50:01.449Z,85.90
2022-12-01T03:52:37.072Z,86.39
2022-12-01T03:55:12.013Z,86.11
2022-12-01T03:57:43.745Z,87.26
2022-12-01T04:00:13.184Z,87.38
2022-12-01T04:02:44.860Z,87.73
2022-12-01T04:05:13.460Z,89.25
2022-12-01T04:07:41.862Z,88.63
2022-12-01T04:10:13.353Z,87.68
2022-12-01T04:12:40.383Z,86.17
2022-12-01T04:15:11.227Z,87.65
2022-12-01T04:17:39.339Z,88.24
2022-12-01T04:20:10.736Z,88.72
2022-12-01T04:22:38.926Z,88.06
2022-12-01T04:25:08.318Z,87.63
2022-12-01T04:27:36.697Z,87.35
2022-12-01T04:30:05.454Z,87.19
2022-12-01T04:32:33.494Z,86.35
2022-12-01T04:35:01.605Z,87.79
2022-12-01T04:37:30.970Z,87.53
2022-12-01T04:39:58.994Z,87.88
2022-12-01T04:42:27.014Z,86.44
2022-12-01T04:44:55.073Z,87.59
2022-12-01T04:47:23.067Z,87.42
2022-12-01T04:49:51.288Z,88.31
2022-12-01T04:52:19.528Z,87.36
2022-12-01T04:54:48.907Z,87.60
2022-12-01T04:57:16.905Z,87.34
2022-12-01T04:59:44.945Z,88.02
2022-12-01T05:02:13.051Z,87.89
2022-12-01T05:04:41.893Z,87.54
2022-12-01T05:07:10.337Z,87.47
2022-12-01T05:09:38.873Z,87.53
2022-12-01T05:12:08.468Z,86.96
2022-12-01T05:14:36.470Z,87.74
2022-12-01T05:17:04.756Z,86.97
2022-12-01T05:19:50.308Z,87.24
2022-12-01T05:22:27.014Z,86.98
2022-12-01T05:25:06.643Z,86.08
2022-12-01T05:27:36.058Z,87.14
2022-12-01T05:30:04.561Z,87.08
2022-12-01T05:32:32.577Z,86.12
2022-12-01T05:35:00.552Z,86.74
2022-12-01T05:37:32.265Z,87.01
2022-12-01T05:40:00.371Z,87.55
2022-12-01T05:42:28.431Z,87.23
2022-12-01T05:44:57.842Z,87.52
2022-12-01T05:47:25.898Z,87.45
2022-12-01T05:49:54.137Z,86.90
2022-12-01T05:52:22.462Z,86.71
2022-12-01T05:54:50.465Z,85.96
2022-12-01T05:57:18.506Z,86.17
2022-12-01T05:59:46.626Z,85.70
2022-12-01T06:02:16.278Z,86.47
2022-12-01T06:04:44.395Z,86.25
2022-12-01T06:07:12.520Z,86.77
2022-12-01T06:09:40.578Z,85.50
2022-12-01T06:12:08.783Z,85.76
2022-12-01T06:14:36.798Z,86.51
2022-12-01T06:17:04.901Z,85.86
2022-12-01T06:19:34.282Z,86.15
2022-12-01T06:22:02.656Z,86.57
2022-12-01T06:24:30.793Z,86.22
2022-12-01T06:26:58.837Z,86.35
2022-12-01T06:29:26.927Z,85.11
2022-12-01T06:32:02.343Z,85.19
2022-12-01T06:34:39.478Z,85.73
2022-12-01T06:37:16.882Z,85.88
2022-12-01T06:39:46.910Z,85.80
2022-12-01T06:42:18.422Z,85.13
2022-12-01T06:44:54.003Z,86.41
2022-12-01T06:47:25.103Z,85.34
2022-12-01T06:50:15.191Z,84.54
2022-12-01T06:52:59.357Z,84.55
2022-12-01T06:55:39.163Z,85.21
2022-12-01T06:58:10.725Z,84.10
2022-12-01T07:00:50.470Z,85.23
2022-12-01T07:03:31.552Z,84.89
2022-12-01T07:06:05.757Z,84.61
2022-12-01T07:08:41.617Z,84.20
2022-12-01T07:11:12.764Z,84.04
2022-12-01T07:13:49.735Z,84.28
2022-12-01T07:16:20.147Z,84.33
2022-12-01T07:18:55.449Z,84.26
2022-12-01T07:21:29.106Z,83.59
2022-12-01T07:24:11.483Z,83.68
2022-12-01T07:26:42.404Z,84.01
2022-12-01T07:29:11.884Z,84.19
2022-12-01T07:31:48.989Z,84.27
2022-12-01T07:34:25.830Z,84.58
2022-12-01T07:36:58.615Z,83.98
2022-12-01T07:39:30.841Z,84.10
2022-12-01T07:42:00.181Z,84.89
2022-12-01T07:44:35.456Z,85.33
2022-12-01T07:47:04.501Z,83.90
2022-12-01T07:49:36.240Z,84.31
2022-12-01T07:52:08.340Z,84.53
2022-12-01T07:54:45.235Z,83.92
2022-12-01T07:57:17.875Z,85.05
2022-12-01T07:59:48.083Z,86.37
2022-12-01T08:02:19.706Z,84.97
2022-12-01T08:04:49.709Z,84.80
2022-12-01T08:07:24.198Z,83.91
2022-12-01T08:10:05.289Z,84.16
2022-12-01T08:12:38.683Z,84.80
2022-12-01T08:15:07.617Z,85.27
2022-12-01T08:17:38.175Z,85.44
2022-12-01T08:20:10.822Z,85.60
2022-12-01T08:22:44.057Z,84.75
2022-12-01T08:25:13.659Z,84.84
2022-12-01T08:27:43.902Z,82.52
2022-12-01T08:30:24.156Z,83.13
2022-12-01T08:32:55.624Z,83.59
2022-12-01T08:35:25.813Z,82.80
2022-12-01T08:37:57.726Z,80.97
2022-12-01T08:40:28.383Z,82.88
2022-12-01T08:42:57.990Z,81.73
2022-12-01T08:45:29.690Z,81.73
2022-12-01T08:48:06.435Z,81.21
2022-12-01T08:50:43.466Z,80.71
2022-12-01T08:53:22.057Z,80.98
2022-12-01T08:55:56.885Z,80.80
2022-12-01T08:58:28.614Z,79.94
2022-12-01T09:01:11.963Z,79.71
2022-12-01T09:03:41.804Z,80.24
2022-12-01T09:06:12.907Z,79.58
2022-12-01T09:08:48.505Z,80.29
2022-12-01T09:11:21.116Z,80.08
2022-12-01T09:13:54.588Z,80.53
2022-12-01T09:16:25.407Z,79.13
2022-12-01T09:18:57.832Z,80.27
2022-12-01T09:21:27.190Z,80.04
2022-12-01T09:23:56.614Z,80.96
2022-12-01T09:26:25.142Z,80.47
2022-12-01T09:28:54.880Z,79.98
2022-12-01T09:31:24.382Z,80.25
2022-12-01T09:33:56.636Z,79.05
2022-12-01T09:36:25.723Z,80.13
2022-12-01T09:38:53.736Z,79.16
2022-12-01T09:41:25.657Z,81.10
2022-12-01T09:43:59.758Z,80.66
2022-12-01T09:46:31.959Z,80.21
2022-12-01T09:49:01.384Z,79.76
2022-12-01T09:51:31.137Z,80.28
2022-12-01T09:54:00.289Z,80.96
2022-12-01T09:56:32.179Z,80.24
2022-12-01T09:59:02.208Z,80.70
2022-12-01T10:01:36.916Z,80.29
2022-12-01T10:04:10.756Z,80.97
2022-12-01T10:06:41.183Z,81.39
2022-12-01T10:09:20.269Z,80.24
2022-12-01T10:11:49.906Z,80.48
2022-12-01T10:14:20.794Z,80.84
2022-12-01T10:16:56.399Z,82.06
2022-12-01T10:19:26.714Z,81.75
2022-12-01T10:22:05.678Z,81.32
2022-12-01T10:24:43.440Z,82.11
2022-12-01T10:27:18.109Z,81.89
2022-12-01T10:29:50.418Z,81.47
2022-12-01T10:32:20.479Z,81.99
2022-12-01T10:34:49.192Z,81.04
2022-12-01T10:37:20.058Z,80.56
2022-12-01T10:39:49.995Z,80.96
2022-12-01T10:42:35.635Z,80.80
2022-12-01T10:45:08.668Z,80.77
2022-12-01T10:47:36.923Z,79.64
2022-12-01T10:50:05.629Z,80.03
2022-12-01T10:52:36.980Z,79.55
2022-12-01T10:55:07.524Z,79.30
2022-12-01T10:57:37.732Z,79.18
2022-12-01T11:00:09.061Z,79.15
2022-12-01T11:02:37.455Z,78.98
2022-12-01T11:05:07.890Z,77.86
2022-12-01T11:07:44.015Z,77.63
2022-12-01T11:10:17.715Z,79.81
2022-12-01T11:12:54.583Z,79.27
2022-12-01T11:15:24.734Z,79.61
2022-12-01T11:17:59.366Z,77.72
2022-12-01T11:20:36.196Z,79.26
2022-12-01T11:23:26.498Z,79.50
2022-12-01T11:26:00.765Z,78.67
2022-12-01T11:28:30.737Z,79.01
2022-12-01T11:31:00.546Z,79.18
2022-12-01T11:33:29.767Z,78.19
2022-12-01T11:35:58.103Z,78.40
2022-12-01T11:38:32.648Z,78.61
2022-12-01T11:41:00.649Z,79.19
2022-12-01T11:43:31.955Z,79.29
2022-12-01T11:46:03.748Z,78.31
2022-12-01T11:48:34.535Z,78.14
2022-12-01T11:51:07.338Z,78.17
2022-12-01T11:53:37.132Z,79.04
2022-12-01T11:56:20.883Z,78.31
2022-12-01T11:58:51.975Z,78.90
2022-12-01T12:01:26.819Z,78.27
2022-12-01T12:04:02.766Z,77.38
2022-12-01T12:06:41.921Z,78.56
2022-12-01T12:09:21.909Z,77.93
2022-12-01T12:11:55.985Z,79.17
2022-12-01T12:14:34.240Z,77.64
2022-12-01T12:17:16.892Z,78.70
2022-12-01T12:20:09.190Z,78.64
2022-12-01T12:22:50.859Z,78.32
2022-12-01T12:25:27.177Z,78.12
2022-12-01T12:28:06.779Z,78.17
2022-12-01T12:30:44.093Z,78.71
2022-12-01T12:33:31.452Z,79.55
2022-12-01T12:36:07.671Z,79.07
2022-12-01T12:38:59.740Z,78.72
2022-12-01T12:41:34.333Z,79.55
2022-12-01T12:44:22.256Z,79.17
2022-12-01T12:47:07.885Z,79.80
2022-12-01T12:49:44.387Z,78.52
2022-12-01T12:52:15.237Z,78.49
2022-12-01T12:54:47.689Z,79.26
2022-12-01T12:57:22.365Z,80.37
2022-12-01T12:59:54.084Z,79.85
2022-12-01T13:02:27.986Z,79.28
2022-12-01T13:04:59.544Z,78.92
2022-12-01T13:07:35.442Z,78.66
2022-12-01T13:10:10.728Z,79.39
2022-12-01T13:12:41.947Z,80.19
2022-12-01T13:15:16.899Z,79.80
2022-12-01T13:17:49.369Z,80.38
2022-12-01T13:20:20.979Z,80.78
2022-12-01T13:22:49.499Z,80.89
2022-12-01T13:25:25.887Z,80.77
2022-12-01T13:27:55.890Z,81.17
2022-12-01T13:30:25.926Z,80.50
2022-12-01T13:33:02.145Z,80.74
2022-12-01T13:35:32.487Z,78.65
2022-12-01T13:38:24.970Z,79.25
2022-12-01T13:41:11.029Z,80.05
2022-12-01T13:43:47.788Z,81.24
2022-12-01T13:46:22.624Z,81.47
2022-12-01T13:48:54.254Z,81.00
2022-12-01T13:51:22.348Z,80.81
2022-12-01T13:54:05.252Z,80.69
2022-12-01T13:56:41.169Z,80.39
2022-12-01T13:59:45.883Z,80.64
2022-12-01T14:02:23.109Z,81.20
2022-12-01T14:05:03.508Z,81.56
2022-12-01T14:07:56.465Z,81.17
2022-12-01T14:10:33.319Z,81.95
2022-12-01T14:13:09.808Z,80.87
2022-12-01T14:15:46.320Z,81.57
2022-12-01T14:18:39.454Z,81.88
2022-12-01T14:21:15.780Z,82.00
2022-12-01T14:24:07.412Z,82.27
2022-12-01T14:26:44.964Z,81.59
2022-12-01T14:29:47.233Z,82.41
2022-12-01T14:32:31.366Z,82.00
2022-12-01T14:35:06.985Z,82.58
2022-12-01T14:37:52.895Z,82.85
2022-12-01T14:40:28.931Z,82.54
2022-12-01T14:43:18.175Z,81.91
2022-12-01T14:46:04.882Z,83.15
2022-12-01T14:48:41.663Z,83.60
2022-12-01T14:51:20.714Z,84.35
2022-12-01T14:53:55.759Z,84.71
2022-12-01T14:56:28.593Z,85.07
2022-12-01T14:59:07.013Z,85.27
2022-12-01T15:01:41.953Z,85.32
2022-12-01T15:04:19.807Z,85.42
2022-12-01T15:06:58.275Z,85.17
2022-12-01T15:09:33.959Z,84.61
2022-12-01T15:12:20.715Z,84.68
2022-12-01T15:14:52.028Z,85.88
2022-12-01T15:17:33.628Z,85.03
2022-12-01T15:20:14.232Z,84.74
2022-12-01T15:22:55.672Z,86.29
2022-12-01T15:25:37.414Z,86.23
2022-12-01T15:28:15.023Z,85.85
2022-12-01T15:30:49.685Z,86.26
2022-12-01T15:33:27.285Z,86.22
2022-12-01T15:36:00.393Z,86.23
2022-12-01T15:38:31.474Z,86.45
2022-12-01T15:44:01.856Z,85.13
2022-12-01T15:46:32.858Z,85.44
2022-12-01T15:49:13.570Z,86.14
2022-12-01T15:51:45.060Z,86.38
2022-12-01T15:54:20.452Z,85.75
2022-12-01T15:56:56.419Z,85.24
2022-12-01T15:59:35.986Z,84.35
2022-12-01T16:02:29.895Z,83.11
2022-12-01T16:05:09.215Z,83.26
2022-12-01T16:10:44.054Z,82.33
2022-12-01T16:13:42.979Z,82.26
2022-12-01T16:16:40.889Z,83.91
2022-12-01T16:19:46.649Z,83.58
2022-12-01T16:22:24.956Z,84.60
2022-12-01T16:25:07.544Z,85.35
2022-12-01T16:27:44.542Z,84.77
2022-12-01T16:30:28.966Z,83.93
2022-12-01T16:33:27.068Z,84.20
2022-12-01T16:36:11.063Z,84.71
2022-12-01T16:39:00.162Z,85.02
2022-12-01T16:41:37.875Z,84.85
2022-12-01T16:44:31.867Z,85.55
2022-12-01T16:47:14.754Z,84.48
2022-12-01T16:49:54.104Z,84.08
2022-12-01T16:52:43.692Z,85.21
2022-12-01T16:55:57.184Z,84.87
2022-12-01T16:58:31.535Z,84.52
2022-12-01T17:03:57.868Z,85.76
2022-12-01T17:06:29.504Z,84.10
2022-12-01T17:09:07.403Z,86.29
2022-12-01T17:11:39.838Z,87.23
2022-12-01T17:14:15.324Z,87.51
2022-12-01T17:17:06.704Z,86.02
2022-12-01T17:19:42.602Z,87.42
2022-12-01T17:22:17.220Z,87.51
2022-12-01T17:24:56.653Z,86.53
2022-12-01T17:27:29.686Z,86.42
2022-12-01T17:30:16.805Z,86.98
2022-12-01T17:32:46.760Z,87.25
2022-12-01T17:35:28.678Z,88.04
2022-12-01T17:38:10.544Z,87.40
2022-12-01T17:40:49.076Z,86.20
2022-12-01T17:43:27.462Z,85.58
2022-12-01T17:46:03.719Z,86.96
2022-12-01T17:48:45.100Z,86.34
2022-12-01T17:51:18.166Z,87.85
2022-12-01T17:53:48.536Z,87.67
2022-12-01T17:56:19.407Z,87.28
2022-12-01T17:58:54.947Z,88.11
2022-12-01T18:01:36.301Z,87.55
2022-12-01T18:04:14.899Z,87.38
2022-12-01T18:07:02.018Z,88.31
2022-12-01T18:09:39.521Z,86.85
2022-12-01T18:12:12.702Z,85.58
2022-12-01T18:14:45.266Z,86.97
2022-12-01T18:17:20.527Z,87.09
2022-12-01T18:19:55.863Z,85.48
2022-12-01T18:22:31.309Z,86.33
2022-12-01T18:25:05.935Z,86.52
2022-12-01T18:27:39.431Z,86.11
2022-12-01T18:30:14.014Z,85.56
2022-12-01T18:32:43.003Z,86.22
2022-12-01T18:35:17.207Z,86.50
2022-12-01T18:38:18.539Z,85.62
2022-12-01T18:40:59.595Z,86.74
2022-12-01T18:43:41.402Z,87.00
2022-12-01T18:46:20.250Z,87.65
2022-12-01T18:48:52.860Z,87.34
2022-12-01T18:54:37.478Z,86.18
2022-12-01T18:57:17.281Z,86.47
2022-12-01T18:59:54.431Z,85.84
2022-12-01T19:02:26.886Z,86.54
2022-12-01T19:05:04.545Z,85.61
2022-12-01T19:07:48.678Z,86.21
2022-12-01T19:10:28.162Z,85.20
2022-12-01T19:13:21.499Z,85.62
2022-12-01T19:15:53.125Z,86.92
2022-12-01T19:18:36.047Z,85.67
2022-12-01T19:21:22.542Z,86.42
2022-12-01T19:23:54.620Z,87.23
2022-12-01T19:26:41.936Z,86.75
2022-12-01T19:29:23.743Z,86.70
2022-12-01T19:31:55.649Z,87.12
2022-12-01T19:34:26.690Z,87.09
2022-12-01T19:37:03.472Z,87.07
2022-12-01T19:39:37.784Z,87.80
2022-12-01T19:42:34.926Z,87.86
2022-12-01T19:45:29.333Z,88.39
2022-12-01T19:48:12.439Z,87.84
2022-12-01T19:50:56.920Z,87.30
2022-12-01T19:53:37.590Z,87.66
2022-12-01T19:56:17.269Z,88.62
2022-12-01T19:58:55.668Z,88.59
2022-12-01T20:01:28.915Z,87.45
2022-12-01T20:06:43.156Z,88.44
2022-12-01T20:09:22.569Z,88.73
2022-12-01T20:11:53.972Z,88.84
2022-12-01T20:14:37.788Z,87.28
2022-12-01T20:17:15.735Z,88.92
2022-12-01T20:19:48.637Z,87.47
2022-12-01T20:22:35.743Z,88.00
2022-12-01T20:25:10.661Z,87.19
2022-12-01T20:27:44.150Z,87.45
2022-12-01T20:30:27.296Z,86.92
2022-12-01T20:33:10.924Z,86.76
2022-12-01T20:35:41.403Z,86.81
2022-12-01T20:38:14.372Z,87.77
2022-12-01T20:40:54.784Z,86.47
2022-12-01T20:43:34.746Z,87.40
2022-12-01T20:46:15.007Z,87.59
2022-12-01T20:48:59.189Z,86.32
2022-12-01T20:51:33.730Z,85.83
2022-12-01T20:54:32.758Z,86.02
2022-12-01T20:57:06.020Z,87.19
2022-12-01T20:59:45.960Z,87.38
2022-12-01T21:02:24.050Z,86.90
2022-12-01T21:04:59.654Z,87.00
2022-12-01T21:07:41.606Z,87.53
2022-12-01T21:10:20.229Z,85.70
2022-12-01T21:13:13.295Z,86.64
2022-12-01T21:16:00.123Z,87.71
2022-12-01T21:18:46.197Z,87.08
2022-12-01T21:21:33.510Z,87.62
2022-12-01T21:24:21.795Z,86.95
2022-12-01T21:26:54.601Z,86.32
2022-12-01T21:29:34.131Z,86.17
2022-12-01T21:32:16.210Z,87.35
2022-12-01T21:34:53.386Z,86.62
2022-12-01T21:37:24.968Z,86.51
2022-12-01T21:39:58.042Z,86.04
2022-12-01T21:42:28.360Z,87.09
2022-12-01T21:44:59.984Z,85.85
2022-12-01T21:47:31.683Z,86.01
2022-12-01T21:50:04.785Z,87.15
2022-12-01T21:52:40.573Z,86.09
2022-12-01T21:55:52.386Z,86.64
2022-12-01T21:58:36.679Z,86.25
2022-12-01T22:01:21.353Z,87.39
2022-12-01T22:03:51.093Z,87.24
2022-12-01T22:06:34.387Z,87.24
2022-12-01T22:09:30.389Z,87.28
2022-12-01T22:12:13.719Z,86.43
2022-12-01T22:14:45.402Z,86.43
2022-12-01T22:17:26.200Z,86.58
2022-12-01T22:19:57.774Z,86.18
2022-12-01T22:22:27.207Z,87.06
2022-12-01T22:24:59.616Z,86.75
2022-12-01T22:27:33.196Z,86.96
2022-12-01T22:30:20.685Z,87.20
2022-12-01T22:33:00.643Z,87.52
2022-12-01T22:35:38.213Z,87.90
2022-12-01T22:38:36.069Z,86.89
2022-12-01T22:41:10.020Z,86.20
2022-12-01T22:44:01.831Z,86.57
2022-12-01T22:46:43.742Z,85.95
2022-12-01T22:49:24.873Z,85.56
2022-12-01T22:51:58.858Z,87.34
2022-12-01T22:54:37.642Z,86.81
2022-12-01T22:57:28.464Z,88.09
2022-12-01T23:00:08.291Z,87.61
2022-12-01T23:02:38.370Z,88.61
2022-12-01T23:05:18.243Z,87.80
2022-12-01T23:07:57.868Z,87.68
2022-12-01T23:10:33.685Z,87.65
2022-12-01T23:13:12.441Z,87.78
2022-12-01T23:15:57.360Z,88.02
2022-12-01T23:18:31.717Z,88.82
2022-12-01T23:21:07.019Z,87.59
2022-12-01T23:23:38.015Z,87.76
2022-12-01T23:26:13.094Z,87.73
2022-12-01T23:28:50.741Z,87.49
2022-12-01T23:31:22.909Z,88.18
2022-12-01T23:33:54.774Z,88.11
2022-12-01T23:39:17.805Z,88.22
2022-12-01T23:41:53.300Z,88.18
2022-12-01T23:44:30.937Z,87.77
2022-12-01T23:47:02.155Z,88.01
2022-12-01T23:49:33.609Z,87.92
2022-12-01T23:52:11.356Z,88.92
2022-12-01T23:54:40.935Z,88.91
2022-12-01T23:57:27.374Z,89.82
